Saint-Malachie, Canada
Current Conditions -  °F | °C
As of 9:00 PM on Sunday 25 Jan 2015 (Local Time) from CYQB Reporting Station
Scattered Clouds Scattered Clouds  
Wind Chill: -16°   Ceiling: Unl
Heat Index:   Visibility: 20mi
Dew Point: -8°   Wind: 16mph
Humidity: 61%   Direction: 260°W
Pressure: 29.94"   Gusts: NA
Location:  46.53°N, 70.77°W
Report Text: CYQB 260200Z 26014KT 20SM SCT030 M16/M22 A2994 RMK SC4 SLP147
Loading
Personal Weather Stations






























Interactive Weather Map New forecast layout! Learn more

10-Day Weather Forecast

Advertisements
Track Severe Weather on mobile